createdAt,value
2018-12-10T00:01:17.004Z,52.25
2018-12-10T00:03:43.144Z,51.81
2018-12-10T00:06:09.153Z,52.17
2018-12-10T00:08:35.191Z,52.36
2018-12-10T00:11:01.196Z,51.63
2018-12-10T00:13:27.212Z,52.46
2018-12-10T00:15:53.156Z,52.50
2018-12-10T00:18:19.157Z,52.12
2018-12-10T00:20:45.100Z,51.87
2018-12-10T00:23:11.109Z,52.53
2018-12-10T00:25:37.251Z,52.04
2018-12-10T00:28:03.257Z,51.90
2018-12-10T00:30:29.304Z,51.81
2018-12-10T00:32:55.293Z,51.96
2018-12-10T00:35:21.245Z,51.96
2018-12-10T00:37:47.248Z,52.28
2018-12-10T00:40:13.292Z,52.45
2018-12-10T00:42:39.292Z,52.53
2018-12-10T00:45:05.340Z,52.52
2018-12-10T00:47:31.441Z,52.65
2018-12-10T00:49:57.484Z,52.46
2018-12-10T00:52:23.516Z,52.12
2018-12-10T00:54:49.547Z,52.67
2018-12-10T00:57:15.540Z,51.98
2018-12-10T00:59:41.554Z,52.51
2018-12-10T01:02:07.612Z,52.42
2018-12-10T01:04:33.604Z,51.94
2018-12-10T01:06:59.644Z,52.58
2018-12-10T01:09:25.648Z,52.62
2018-12-10T01:11:51.789Z,52.60
2018-12-10T01:14:17.792Z,52.38
2018-12-10T01:16:43.740Z,52.72
2018-12-10T01:19:09.732Z,52.15
2018-12-10T01:21:35.676Z,52.57
2018-12-10T01:24:01.680Z,52.20
2018-12-10T01:26:27.616Z,52.67
2018-12-10T01:28:53.624Z,52.54
2018-12-10T01:31:19.573Z,52.54
2018-12-10T01:33:45.573Z,51.92
2018-12-10T01:36:11.608Z,52.52
2018-12-10T01:38:37.616Z,52.38
2018-12-10T01:41:03.676Z,52.59
2018-12-10T01:43:29.658Z,52.63
2018-12-10T01:45:55.601Z,52.42
2018-12-10T01:48:21.612Z,52.82
2018-12-10T01:50:47.649Z,52.64
2018-12-10T01:53:13.650Z,52.78
2018-12-10T01:55:39.705Z,52.24
2018-12-10T01:58:05.705Z,52.22
2018-12-10T02:00:31.740Z,52.17
2018-12-10T02:02:57.884Z,51.92
2018-12-10T02:05:23.876Z,52.45
2018-12-10T02:07:49.813Z,52.75
2018-12-10T02:10:15.812Z,52.40
2018-12-10T02:12:41.852Z,52.81
2018-12-10T02:15:07.856Z,52.28
2018-12-10T02:17:33.893Z,53.23
2018-12-10T02:19:59.904Z,52.85
2018-12-10T02:22:26.067Z,52.63
2018-12-10T02:24:52.049Z,52.99
2018-12-10T02:27:17.993Z,52.83
2018-12-10T02:29:43.992Z,52.28
2018-12-10T02:32:09.944Z,52.41
2018-12-10T02:34:35.932Z,52.32
2018-12-10T02:37:01.856Z,52.98
2018-12-10T02:39:27.902Z,52.80
2018-12-10T02:41:53.901Z,53.30
2018-12-10T02:44:19.869Z,53.01
2018-12-10T02:46:45.847Z,52.88
2018-12-10T02:49:11.885Z,52.43
2018-12-10T02:51:37.910Z,52.56
2018-12-10T02:54:04.041Z,52.47
2018-12-10T02:56:30.041Z,53.10
2018-12-10T02:58:56.084Z,52.46
2018-12-10T03:01:22.090Z,52.94
2018-12-10T03:03:48.137Z,52.65
2018-12-10T03:06:14.133Z,52.70
2018-12-10T03:08:40.317Z,52.49
2018-12-10T03:11:06.287Z,52.94
2018-12-10T03:13:32.304Z,53.23
2018-12-10T03:15:58.345Z,52.79
2018-12-10T03:18:24.352Z,52.53
2018-12-10T03:20:52.743Z,52.71
2018-12-10T03:23:18.351Z,52.96
2018-12-10T03:25:44.580Z,52.71
2018-12-10T03:28:10.593Z,52.86
2018-12-10T03:30:36.657Z,53.19
2018-12-10T03:33:02.792Z,53.26
2018-12-10T03:35:28.917Z,52.70
2018-12-10T03:37:54.894Z,53.00
2018-12-10T03:40:21.041Z,52.98
2018-12-10T03:42:47.269Z,53.05
2018-12-10T03:45:13.388Z,52.67
2018-12-10T03:47:39.496Z,53.15
2018-12-10T03:50:05.864Z,53.20
2018-12-10T03:52:31.868Z,52.90
2018-12-10T03:54:57.996Z,53.45
2018-12-10T03:57:24.102Z,52.79
2018-12-10T03:59:50.112Z,53.33
2018-12-10T04:02:16.068Z,53.21
2018-12-10T04:04:42.060Z,53.17
2018-12-10T04:07:08.228Z,53.28
2018-12-10T04:09:34.208Z,53.28
2018-12-10T04:12:00.253Z,53.04
2018-12-10T04:14:26.309Z,52.80
2018-12-10T04:16:52.475Z,53.14
2018-12-10T04:19:18.604Z,52.71
2018-12-10T04:21:44.589Z,52.94
2018-12-10T04:24:10.665Z,52.86
2018-12-10T04:26:36.720Z,53.06
2018-12-10T04:29:02.805Z,52.84
2018-12-10T04:31:28.740Z,52.85
2018-12-10T04:33:54.749Z,53.32
2018-12-10T04:36:20.802Z,53.19
2018-12-10T04:38:46.793Z,53.40
2018-12-10T04:41:12.940Z,52.72
2018-12-10T04:43:38.941Z,53.50
2018-12-10T04:46:04.984Z,53.34
2018-12-10T04:48:31.013Z,52.87
2018-12-10T04:50:57.008Z,53.00
2018-12-10T04:53:22.953Z,52.88
2018-12-10T04:55:48.961Z,53.21
2018-12-10T04:58:15.113Z,52.81
2018-12-10T05:00:41.112Z,52.90
2018-12-10T05:03:07.140Z,53.15
2018-12-10T05:05:33.144Z,52.67
2018-12-10T05:07:59.088Z,53.36
2018-12-10T05:10:25.096Z,53.28
2018-12-10T05:12:51.149Z,53.53
2018-12-10T05:15:17.141Z,52.92
2018-12-10T05:17:43.185Z,53.13
2018-12-10T05:20:09.185Z,53.24
2018-12-10T05:22:35.232Z,53.00
2018-12-10T05:25:01.239Z,53.26
2018-12-10T05:27:27.488Z,52.65
2018-12-10T05:29:53.481Z,52.95
2018-12-10T05:32:19.502Z,53.02
2018-12-10T05:34:45.552Z,53.27
2018-12-10T05:37:11.672Z,53.29
2018-12-10T05:39:38.544Z,53.26
2018-12-10T05:42:04.829Z,52.76
2018-12-10T05:44:30.869Z,53.53
2018-12-10T05:46:56.890Z,53.15
2018-12-10T05:49:23.016Z,53.25
2018-12-10T05:51:49.024Z,53.33
2018-12-10T05:54:15.068Z,53.26
2018-12-10T05:56:41.064Z,53.02
2018-12-10T05:59:07.005Z,53.40
2018-12-10T06:01:33.016Z,52.80
2018-12-10T06:03:59.055Z,53.09
2018-12-10T06:06:25.057Z,52.84
2018-12-10T06:08:50.997Z,52.90
2018-12-10T06:11:17.001Z,52.99
2018-12-10T06:13:43.060Z,53.05
2018-12-10T06:16:09.053Z,53.04
2018-12-10T06:18:35.078Z,53.46
2018-12-10T06:21:01.112Z,53.53
2018-12-10T06:23:27.112Z,53.13
2018-12-10T06:25:53.057Z,53.01
2018-12-10T06:28:19.056Z,53.30
2018-12-10T06:30:45.000Z,53.33
2018-12-10T06:33:11.000Z,52.98
2018-12-10T06:35:36.950Z,53.30
2018-12-10T06:38:02.940Z,53.60
2018-12-10T06:40:28.883Z,53.22
2018-12-10T06:42:55.094Z,53.39
2018-12-10T06:45:21.132Z,53.53
2018-12-10T06:47:47.149Z,53.59
2018-12-10T06:50:13.180Z,53.63
2018-12-10T06:52:39.188Z,53.60
2018-12-10T06:55:05.470Z,52.92
2018-12-10T06:57:31.540Z,53.53
2018-12-10T06:59:57.576Z,53.15
2018-12-10T07:02:23.585Z,53.61
2018-12-10T07:04:49.596Z,53.04
2018-12-10T07:07:15.550Z,53.50
2018-12-10T07:09:41.652Z,53.07
2018-12-10T07:12:07.708Z,53.74
2018-12-10T07:14:33.697Z,53.21
2018-12-10T07:16:59.760Z,53.80
2018-12-10T07:19:25.744Z,53.46
2018-12-10T07:21:51.786Z,53.37
2018-12-10T07:24:17.796Z,53.72
2018-12-10T07:26:43.840Z,53.30
2018-12-10T07:29:09.836Z,53.26
2018-12-10T07:31:35.776Z,54.13
2018-12-10T07:34:01.784Z,54.14
2018-12-10T07:36:27.817Z,54.29
2018-12-10T07:41:19.352Z,54.14
2018-12-10T07:43:45.356Z,54.03
2018-12-10T07:46:11.340Z,53.71
2018-12-10T07:48:37.300Z,52.75
2018-12-10T07:51:03.220Z,51.36
2018-12-10T07:53:29.156Z,50.05
2018-12-10T07:55:55.173Z,49.20
2018-12-10T07:58:21.313Z,48.52
2018-12-10T08:00:47.317Z,47.93
2018-12-10T08:03:13.480Z,47.52
2018-12-10T08:05:39.470Z,47.12
2018-12-10T08:08:05.505Z,47.24
2018-12-10T08:10:31.513Z,47.27
2018-12-10T08:12:57.556Z,45.56
2018-12-10T08:15:23.552Z,45.77
2018-12-10T08:17:49.702Z,46.77
2018-12-10T08:20:15.804Z,46.27
2018-12-10T08:22:41.740Z,46.67
2018-12-10T08:25:07.749Z,47.29
2018-12-10T08:27:33.796Z,47.43
2018-12-10T08:29:59.797Z,47.16
2018-12-10T08:32:25.837Z,47.21
2018-12-10T08:34:51.841Z,47.52
2018-12-10T08:37:17.881Z,48.10
2018-12-10T08:39:43.885Z,48.10
2018-12-10T08:42:09.848Z,46.79
2018-12-10T08:44:35.829Z,47.42
2018-12-10T08:47:01.850Z,48.43
2018-12-10T08:49:27.788Z,48.63
2018-12-10T08:51:53.797Z,48.71
2018-12-10T08:54:19.836Z,48.78
2018-12-10T08:56:45.840Z,48.94
2018-12-10T08:59:11.788Z,48.29
2018-12-10T09:01:37.797Z,49.16
2018-12-10T09:04:03.833Z,49.36
2018-12-10T09:06:29.833Z,49.41
2018-12-10T09:08:55.783Z,48.97
2018-12-10T09:11:21.785Z,48.88
2018-12-10T09:13:47.822Z,49.16
2018-12-10T09:16:13.817Z,48.85
2018-12-10T09:18:39.768Z,49.17
2018-12-10T09:21:05.768Z,49.04
2018-12-10T09:23:31.813Z,49.13
2018-12-10T09:25:57.916Z,49.35
2018-12-10T09:28:23.952Z,49.23
2018-12-10T09:30:49.959Z,49.70
2018-12-10T09:33:15.892Z,49.59
2018-12-10T09:35:41.905Z,49.30
2018-12-10T09:38:07.941Z,49.14
2018-12-10T09:40:34.048Z,49.46
2018-12-10T09:43:00.064Z,48.84
2018-12-10T09:45:26.013Z,49.24
2018-12-10T09:47:52.020Z,49.08
2018-12-10T09:50:18.071Z,49.15
2018-12-10T09:52:44.069Z,48.49
2018-12-10T09:55:10.112Z,48.42
2018-12-10T09:57:36.104Z,48.40
2018-12-10T10:00:02.312Z,49.04
2018-12-10T10:02:28.256Z,49.03
2018-12-10T10:04:54.198Z,48.91
2018-12-10T10:07:28.242Z,49.08
2018-12-10T10:09:48.210Z,48.65
2018-12-10T10:12:14.196Z,48.91
2018-12-10T10:14:40.236Z,48.87
2018-12-10T10:17:06.233Z,48.72
2018-12-10T10:19:32.177Z,48.87
2018-12-10T10:21:58.180Z,49.00
2018-12-10T10:24:24.132Z,48.91
2018-12-10T10:26:50.124Z,48.39
2018-12-10T10:29:16.140Z,48.56
2018-12-10T10:31:42.088Z,49.06
2018-12-10T10:34:08.088Z,49.09
2018-12-10T10:36:34.072Z,49.03
2018-12-10T10:39:00.028Z,49.38
2018-12-10T10:41:31.253Z,48.78
2018-12-10T10:43:53.921Z,49.06
2018-12-10T10:46:19.864Z,49.48
2018-12-10T10:48:45.973Z,49.21
2018-12-10T10:51:12.122Z,49.43
2018-12-10T10:53:38.219Z,49.78
2018-12-10T10:56:04.277Z,49.76
2018-12-10T10:58:30.293Z,49.05
2018-12-10T11:00:56.296Z,49.60
2018-12-10T11:03:22.336Z,49.63
2018-12-10T11:05:48.362Z,49.29
2018-12-10T11:08:14.376Z,49.41
2018-12-10T11:10:40.380Z,49.71
2018-12-10T11:13:06.531Z,49.38
2018-12-10T11:15:32.632Z,49.41
2018-12-10T11:17:58.569Z,49.33
2018-12-10T11:20:24.573Z,49.31
2018-12-10T11:22:50.516Z,49.35
2018-12-10T11:25:16.521Z,49.61
2018-12-10T11:27:42.563Z,48.90
2018-12-10T11:30:08.726Z,49.50
2018-12-10T11:32:34.804Z,49.54
2018-12-10T11:35:00.816Z,49.71
2018-12-10T11:37:26.728Z,49.04
2018-12-10T11:39:52.672Z,49.72
2018-12-10T11:42:18.682Z,49.49
2018-12-10T11:44:44.721Z,48.88
2018-12-10T11:47:13.175Z,49.03
2018-12-10T11:49:39.743Z,49.22
2018-12-10T11:52:05.744Z,49.38
2018-12-10T11:54:31.802Z,50.03
2018-12-10T11:56:57.881Z,50.11
2018-12-10T11:59:23.840Z,49.95
2018-12-10T12:01:49.941Z,49.48
2018-12-10T12:04:16.077Z,50.08
2018-12-10T12:06:42.080Z,50.08
2018-12-10T12:09:08.021Z,50.30
2018-12-10T12:11:34.028Z,48.56
2018-12-10T12:14:00.060Z,48.75
2018-12-10T12:16:26.069Z,49.18
2018-12-10T12:18:52.025Z,48.94
2018-12-10T12:21:18.017Z,48.88
2018-12-10T12:23:44.061Z,48.88
2018-12-10T12:26:10.060Z,48.80
2018-12-10T12:28:36.008Z,49.20
2018-12-10T12:31:02.213Z,49.15
2018-12-10T12:33:28.254Z,48.47
2018-12-10T12:35:54.376Z,47.15
2018-12-10T12:38:20.385Z,47.26
2018-12-10T12:40:46.432Z,47.37
2018-12-10T12:43:16.086Z,47.38
2018-12-10T12:45:40.416Z,48.07
2018-12-10T12:48:06.416Z,48.23
2018-12-10T12:50:32.357Z,47.93
2018-12-10T12:52:58.372Z,47.94
2018-12-10T12:55:24.507Z,48.17
2018-12-10T12:57:50.617Z,47.92
2018-12-10T13:00:16.652Z,47.88
2018-12-10T13:02:42.665Z,48.29
2018-12-10T13:05:08.936Z,47.91
2018-12-10T13:07:34.908Z,48.05
2018-12-10T13:10:00.872Z,48.67
2018-12-10T13:12:26.848Z,48.45
2018-12-10T13:14:52.782Z,48.69
2018-12-10T13:17:18.828Z,48.65
2018-12-10T13:19:44.917Z,48.66
2018-12-10T13:22:10.874Z,48.62
2018-12-10T13:24:36.856Z,48.07
2018-12-10T13:27:02.812Z,48.36
2018-12-10T13:29:31.312Z,49.14
2018-12-10T13:31:56.797Z,48.25
2018-12-10T13:34:22.805Z,48.88
2018-12-10T13:36:48.844Z,48.65
2018-12-10T13:39:14.853Z,49.25
2018-12-10T13:41:40.988Z,49.33
2018-12-10T13:44:06.996Z,48.88
2018-12-10T13:46:33.050Z,49.22
2018-12-10T13:48:59.032Z,49.03
2018-12-10T13:51:24.987Z,49.23
2018-12-10T13:53:50.984Z,49.36
2018-12-10T13:56:17.081Z,49.63
2018-12-10T13:58:43.193Z,49.68
2018-12-10T14:01:09.152Z,49.09
2018-12-10T14:03:35.197Z,49.11
2018-12-10T14:06:01.214Z,49.50
2018-12-10T14:08:27.252Z,49.67
2018-12-10T14:10:53.240Z,49.76
2018-12-10T14:13:19.195Z,49.19
2018-12-10T14:15:45.200Z,49.71
2018-12-10T14:18:11.232Z,48.50
2018-12-10T14:20:37.248Z,48.41
2018-12-10T14:23:03.389Z,49.02
2018-12-10T14:25:29.380Z,49.37
2018-12-10T14:27:55.328Z,49.54
2018-12-10T14:30:21.337Z,49.63
2018-12-10T14:32:47.381Z,49.23
2018-12-10T14:35:13.380Z,48.87
2018-12-10T14:37:39.420Z,49.71
2018-12-10T14:40:05.440Z,48.73
2018-12-10T14:42:31.444Z,49.35
2018-12-10T14:44:57.400Z,49.17
2018-12-10T14:47:23.384Z,49.44
2018-12-10T14:49:49.326Z,49.10
2018-12-10T14:52:15.332Z,49.04
2018-12-10T14:54:41.368Z,49.68
2018-12-10T14:57:07.380Z,50.28
2018-12-10T14:59:33.424Z,49.85
2018-12-10T15:01:59.420Z,49.30
2018-12-10T15:04:25.376Z,49.84
2018-12-10T15:06:51.372Z,49.37
2018-12-10T15:09:17.831Z,49.29
2018-12-10T15:11:43.813Z,49.86
2018-12-10T15:14:09.764Z,49.31
2018-12-10T15:16:35.864Z,49.48
2018-12-10T15:19:01.809Z,49.82
2018-12-10T15:21:27.811Z,49.99
2018-12-10T15:23:53.778Z,49.89
2018-12-10T15:26:19.857Z,49.97
2018-12-10T15:28:45.890Z,49.36
2018-12-10T15:31:11.924Z,49.20
2018-12-10T15:33:37.937Z,49.72
2018-12-10T15:36:03.968Z,49.30
2018-12-10T15:38:29.968Z,49.10
2018-12-10T15:40:55.911Z,49.52
2018-12-10T15:43:22.024Z,48.89
2018-12-10T15:45:48.056Z,49.43
2018-12-10T15:48:14.069Z,49.42
2018-12-10T15:50:40.130Z,49.63
2018-12-10T15:53:06.109Z,49.55
2018-12-10T15:55:32.064Z,49.06
2018-12-10T15:57:58.156Z,48.56
2018-12-10T16:00:24.200Z,49.27
2018-12-10T16:02:50.210Z,48.87
2018-12-10T16:05:16.252Z,48.74
2018-12-10T16:07:43.072Z,48.80
2018-12-10T16:10:09.012Z,48.72
2018-12-10T16:12:35.056Z,49.66
2018-12-10T16:15:01.044Z,48.93
2018-12-10T16:17:27.084Z,49.31
2018-12-10T16:19:53.181Z,49.68
2018-12-10T16:22:19.121Z,48.99
2018-12-10T16:24:45.125Z,48.92
2018-12-10T16:27:11.069Z,49.80
2018-12-10T16:29:37.068Z,49.15
2018-12-10T16:32:03.051Z,49.85
2018-12-10T16:34:29.113Z,49.27
2018-12-10T16:36:55.068Z,50.07
2018-12-10T16:39:21.065Z,49.85
2018-12-10T16:41:47.103Z,49.99
2018-12-10T16:44:13.212Z,49.57
2018-12-10T16:46:39.268Z,49.60
2018-12-10T16:49:05.261Z,50.14
2018-12-10T16:51:31.304Z,49.66
2018-12-10T16:53:57.301Z,49.41
2018-12-10T16:56:23.352Z,49.00
2018-12-10T16:58:49.344Z,49.76
2018-12-10T17:01:15.488Z,49.36
2018-12-10T17:03:41.492Z,49.16
2018-12-10T17:06:07.433Z,49.23
2018-12-10T17:08:33.440Z,49.83
2018-12-10T17:10:59.513Z,49.90
2018-12-10T17:13:25.488Z,49.40
2018-12-10T17:15:51.508Z,49.65
2018-12-10T17:18:17.553Z,50.03
2018-12-10T17:20:43.561Z,49.70
2018-12-10T17:23:09.599Z,49.99
2018-12-10T17:25:35.705Z,49.96
2018-12-10T17:28:01.769Z,49.99
2018-12-10T17:30:27.852Z,49.83
2018-12-10T17:32:53.896Z,49.90
2018-12-10T17:35:19.905Z,50.29
2018-12-10T17:37:45.949Z,50.34
2018-12-10T17:40:11.944Z,49.75
2018-12-10T17:42:38.010Z,48.25
2018-12-10T17:45:05.052Z,49.66
2018-12-10T17:47:31.067Z,49.62
2018-12-10T17:49:57.072Z,49.47
2018-12-10T17:52:23.114Z,49.88
2018-12-10T17:54:49.226Z,49.49
2018-12-10T17:57:15.258Z,49.55
2018-12-10T17:59:41.257Z,49.42
2018-12-10T18:02:07.300Z,49.93
2018-12-10T18:04:33.300Z,50.08
2018-12-10T18:06:59.354Z,49.38
2018-12-10T18:09:25.345Z,50.26
2018-12-10T18:11:51.368Z,50.29
2018-12-10T18:14:17.416Z,50.10
2018-12-10T18:16:43.412Z,49.67
2018-12-10T18:19:09.356Z,49.66
2018-12-10T18:21:35.360Z,49.63
2018-12-10T18:24:01.412Z,50.21
2018-12-10T18:26:27.406Z,50.38
2018-12-10T18:28:53.457Z,50.30
2018-12-10T18:31:19.560Z,49.88
2018-12-10T18:33:45.593Z,49.84
2018-12-10T18:36:11.592Z,49.72
2018-12-10T18:38:37.556Z,50.14
2018-12-10T18:41:03.645Z,50.42
2018-12-10T18:43:29.792Z,50.09
2018-12-10T18:45:55.792Z,50.42
2018-12-10T18:48:21.834Z,49.72
2018-12-10T18:50:47.964Z,50.28
2018-12-10T18:53:14.088Z,49.39
2018-12-10T18:55:40.084Z,49.56
2018-12-10T18:58:06.028Z,49.52
2018-12-10T19:00:32.033Z,49.45
2018-12-10T19:02:58.084Z,49.98
2018-12-10T19:05:24.183Z,49.43
2018-12-10T19:07:50.245Z,50.17
2018-12-10T19:10:16.176Z,50.16
2018-12-10T19:12:42.149Z,50.17
2018-12-10T19:15:08.312Z,50.22
2018-12-10T19:17:34.336Z,50.22
2018-12-10T19:20:00.340Z,49.81
2018-12-10T19:22:26.366Z,49.66
2018-12-10T19:24:52.488Z,50.04
2018-12-10T19:27:18.502Z,50.24
2018-12-10T19:29:44.539Z,50.36
2018-12-10T19:32:10.549Z,50.37
2018-12-10T19:34:36.600Z,50.64
2018-12-10T19:37:02.592Z,50.49
2018-12-10T19:39:28.629Z,50.00
2018-12-10T19:41:54.631Z,50.04
2018-12-10T19:44:20.668Z,50.12
2018-12-10T19:46:46.672Z,50.22
2018-12-10T19:49:13.589Z,50.69
2018-12-10T19:51:39.856Z,50.71
2018-12-10T19:54:05.895Z,50.14
2018-12-10T19:56:31.997Z,50.15
2018-12-10T19:58:58.152Z,50.19
2018-12-10T20:01:24.140Z,50.89
2018-12-10T20:03:50.089Z,50.13
2018-12-10T20:06:16.187Z,50.73
2018-12-10T20:08:42.149Z,50.83
2018-12-10T20:11:08.136Z,50.45
2018-12-10T20:13:34.158Z,50.29
2018-12-10T20:16:00.198Z,50.77
2018-12-10T20:18:26.207Z,50.43
2018-12-10T20:20:52.253Z,50.89
2018-12-10T20:23:18.249Z,50.92
2018-12-10T20:25:44.294Z,50.97
2018-12-10T20:28:10.295Z,50.31
2018-12-10T20:30:36.452Z,50.66
2018-12-10T20:33:02.558Z,50.54
2018-12-10T20:35:28.593Z,50.34
2018-12-10T20:37:54.621Z,51.04
2018-12-10T20:40:20.744Z,51.17
2018-12-10T20:42:46.741Z,50.43
2018-12-10T20:45:12.883Z,50.56
2018-12-10T20:47:38.888Z,50.35
2018-12-10T20:50:04.952Z,51.12
2018-12-10T20:52:30.936Z,50.82
2018-12-10T20:54:56.984Z,51.10
2018-12-10T20:57:22.980Z,51.29
2018-12-10T20:59:49.024Z,51.16
2018-12-10T21:02:15.024Z,51.10
2018-12-10T21:04:41.072Z,51.38
2018-12-10T21:07:07.077Z,50.67
2018-12-10T21:09:33.118Z,50.74
2018-12-10T21:11:59.122Z,50.67
2018-12-10T21:14:25.249Z,51.48
2018-12-10T21:16:51.289Z,50.79
2018-12-10T21:19:17.393Z,50.86
2018-12-10T21:21:43.436Z,51.51
2018-12-10T21:24:09.436Z,50.67
2018-12-10T21:26:35.660Z,50.85
2018-12-10T21:29:01.585Z,50.89
2018-12-10T21:31:27.732Z,51.02
2018-12-10T21:33:53.737Z,51.38
2018-12-10T21:36:19.785Z,50.79
2018-12-10T21:38:45.904Z,51.22
2018-12-10T21:41:11.929Z,51.10
2018-12-10T21:43:37.937Z,51.69
2018-12-10T21:46:03.979Z,51.04
2018-12-10T21:48:30.096Z,51.17
2018-12-10T21:50:56.117Z,51.15
2018-12-10T21:53:22.120Z,51.23
2018-12-10T21:55:48.056Z,51.08
2018-12-10T21:58:14.069Z,51.46
2018-12-10T22:00:40.104Z,51.01
2018-12-10T22:03:06.112Z,51.45
2018-12-10T22:05:32.053Z,51.26
2018-12-10T22:07:58.052Z,51.64
2018-12-10T22:10:23.971Z,51.44
2018-12-10T22:12:50.017Z,51.21
2018-12-10T22:15:16.025Z,51.52
2018-12-10T22:17:42.068Z,51.66
2018-12-10T22:20:08.077Z,51.57
2018-12-10T22:22:34.116Z,51.70
2018-12-10T22:25:00.119Z,51.37
2018-12-10T22:27:26.165Z,51.86
2018-12-10T22:29:52.160Z,51.38
2018-12-10T22:32:18.200Z,51.96
2018-12-10T22:34:44.210Z,51.94
2018-12-10T22:37:10.348Z,51.37
2018-12-10T22:39:36.348Z,52.12
2018-12-10T22:42:02.293Z,51.79
2018-12-10T22:44:28.296Z,51.88
2018-12-10T22:46:54.236Z,51.74
2018-12-10T22:49:20.249Z,51.93
2018-12-10T22:51:46.284Z,51.40
2018-12-10T22:54:12.287Z,52.18
2018-12-10T22:56:38.433Z,51.88
2018-12-10T22:59:04.431Z,51.30
2018-12-10T23:01:30.372Z,51.45
2018-12-10T23:03:56.372Z,52.01
2018-12-10T23:06:22.324Z,51.49
2018-12-10T23:08:48.323Z,52.03
2018-12-10T23:11:14.352Z,51.60
2018-12-10T23:13:40.388Z,51.61
2018-12-10T23:16:06.401Z,51.46
2018-12-10T23:18:32.464Z,51.63
2018-12-10T23:20:58.544Z,51.92
2018-12-10T23:23:24.589Z,52.09
2018-12-10T23:25:50.704Z,52.02
2018-12-10T23:28:16.740Z,51.64
2018-12-10T23:30:42.731Z,51.53
2018-12-10T23:33:08.677Z,51.70
2018-12-10T23:35:34.684Z,51.96
2018-12-10T23:38:00.732Z,51.63
2018-12-10T23:40:26.728Z,52.07
2018-12-10T23:42:52.771Z,51.63
2018-12-10T23:45:18.876Z,51.76
2018-12-10T23:47:44.920Z,52.29
2018-12-10T23:50:10.929Z,51.26
2018-12-10T23:52:36.956Z,51.93
2018-12-10T23:55:02.976Z,52.17
2018-12-10T23:57:28.985Z,52.17
2018-12-10T23:59:54.932Z,51.64
